sensor_id;sensor_type;location;lat;lon;timestamp;P1;durP1;ratioP1;P2;durP2;ratioP2
17987;SDS011;9119;50.932;5.342;2023-02-28T00:01:24;15.80;;;6.60;;
17987;SDS011;9119;50.932;5.342;2023-02-28T00:03:50;12.97;;;6.33;;
17987;SDS011;9119;50.932;5.342;2023-02-28T00:06:16;16.93;;;6.77;;
17987;SDS011;9119;50.932;5.342;2023-02-28T00:08:42;12.07;;;6.70;;
17987;SDS011;9119;50.932;5.342;2023-02-28T00:11:09;11.07;;;6.07;;
17987;SDS011;9119;50.932;5.342;2023-02-28T00:13:38;18.33;;;7.07;;
17987;SDS011;9119;50.932;5.342;2023-02-28T00:16:06;12.60;;;6.20;;
17987;SDS011;9119;50.932;5.342;2023-02-28T00:18:38;12.47;;;7.17;;
17987;SDS011;9119;50.932;5.342;2023-02-28T00:21:04;14.73;;;6.47;;
17987;SDS011;9119;50.932;5.342;2023-02-28T00:23:30;15.47;;;6.03;;
17987;SDS011;9119;50.932;5.342;2023-02-28T00:25:56;14.93;;;6.67;;
17987;SDS011;9119;50.932;5.342;2023-02-28T00:28:21;14.77;;;6.57;;
17987;SDS011;9119;50.932;5.342;2023-02-28T00:30:47;12.33;;;7.10;;
17987;SDS011;9119;50.932;5.342;2023-02-28T00:33:13;13.73;;;6.90;;
17987;SDS011;9119;50.932;5.342;2023-02-28T00:35:44;11.50;;;6.20;;
17987;SDS011;9119;50.932;5.342;2023-02-28T00:38:11;12.30;;;6.43;;
17987;SDS011;9119;50.932;5.342;2023-02-28T00:40:38;14.80;;;5.87;;
17987;SDS011;9119;50.932;5.342;2023-02-28T00:43:03;11.20;;;6.10;;
17987;SDS011;9119;50.932;5.342;2023-02-28T00:45:29;12.30;;;6.63;;
17987;SDS011;9119;50.932;5.342;2023-02-28T00:47:55;12.07;;;6.50;;
17987;SDS011;9119;50.932;5.342;2023-02-28T00:50:20;26.77;;;6.53;;
17987;SDS011;9119;50.932;5.342;2023-02-28T00:52:47;13.87;;;6.73;;
17987;SDS011;9119;50.932;5.342;2023-02-28T00:55:13;17.97;;;6.37;;
17987;SDS011;9119;50.932;5.342;2023-02-28T00:57:38;12.03;;;6.43;;
17987;SDS011;9119;50.932;5.342;2023-02-28T01:00:05;12.90;;;6.10;;
17987;SDS011;9119;50.932;5.342;2023-02-28T01:02:31;14.37;;;6.50;;
17987;SDS011;9119;50.932;5.342;2023-02-28T01:04:57;13.63;;;6.27;;
17987;SDS011;9119;50.932;5.342;2023-02-28T01:07:23;13.37;;;6.30;;
17987;SDS011;9119;50.932;5.342;2023-02-28T01:09:49;13.43;;;6.60;;
17987;SDS011;9119;50.932;5.342;2023-02-28T01:12:14;12.30;;;5.77;;
17987;SDS011;9119;50.932;5.342;2023-02-28T01:14:40;16.87;;;6.27;;
17987;SDS011;9119;50.932;5.342;2023-02-28T01:17:07;11.43;;;6.13;;
17987;SDS011;9119;50.932;5.342;2023-02-28T01:19:33;13.30;;;6.13;;
17987;SDS011;9119;50.932;5.342;2023-02-28T01:22:02;9.57;;;5.87;;
17987;SDS011;9119;50.932;5.342;2023-02-28T01:24:29;15.07;;;5.93;;
17987;SDS011;9119;50.932;5.342;2023-02-28T01:26:55;10.50;;;6.07;;
17987;SDS011;9119;50.932;5.342;2023-02-28T01:29:20;9.93;;;6.07;;
17987;SDS011;9119;50.932;5.342;2023-02-28T01:31:46;15.50;;;6.53;;
17987;SDS011;9119;50.932;5.342;2023-02-28T01:34:12;15.07;;;6.20;;
17987;SDS011;9119;50.932;5.342;2023-02-28T01:36:38;9.73;;;5.83;;
17987;SDS011;9119;50.932;5.342;2023-02-28T01:39:03;11.23;;;6.07;;
17987;SDS011;9119;50.932;5.342;2023-02-28T01:41:31;12.53;;;6.73;;
17987;SDS011;9119;50.932;5.342;2023-02-28T01:43:59;15.50;;;6.60;;
17987;SDS011;9119;50.932;5.342;2023-02-28T01:46:30;14.83;;;6.90;;
17987;SDS011;9119;50.932;5.342;2023-02-28T01:49:02;13.97;;;6.43;;
17987;SDS011;9119;50.932;5.342;2023-02-28T01:51:49;16.10;;;7.30;;
17987;SDS011;9119;50.932;5.342;2023-02-28T01:54:22;13.63;;;6.47;;
17987;SDS011;9119;50.932;5.342;2023-02-28T01:56:55;17.63;;;7.20;;
17987;SDS011;9119;50.932;5.342;2023-02-28T01:59:39;19.10;;;7.13;;
17987;SDS011;9119;50.932;5.342;2023-02-28T02:02:15;14.37;;;6.73;;
17987;SDS011;9119;50.932;5.342;2023-02-28T02:05:06;13.17;;;6.90;;
17987;SDS011;9119;50.932;5.342;2023-02-28T02:07:35;12.10;;;6.53;;
17987;SDS011;9119;50.932;5.342;2023-02-28T02:10:05;15.13;;;7.00;;
17987;SDS011;9119;50.932;5.342;2023-02-28T02:24:14;14.63;;;7.23;;
17987;SDS011;9119;50.932;5.342;2023-02-28T02:26:52;12.33;;;6.67;;
17987;SDS011;9119;50.932;5.342;2023-02-28T02:35:08;19.27;;;7.50;;
17987;SDS011;9119;50.932;5.342;2023-02-28T02:37:42;16.27;;;7.10;;
17987;SDS011;9119;50.932;5.342;2023-02-28T02:40:20;11.83;;;6.80;;
17987;SDS011;9119;50.932;5.342;2023-02-28T02:43:02;20.47;;;8.10;;
17987;SDS011;9119;50.932;5.342;2023-02-28T02:48:20;13.80;;;7.13;;
17987;SDS011;9119;50.932;5.342;2023-02-28T02:50:52;13.90;;;7.23;;
17987;SDS011;9119;50.932;5.342;2023-02-28T02:53:22;14.53;;;6.70;;
17987;SDS011;9119;50.932;5.342;2023-02-28T02:55:52;14.17;;;7.73;;
17987;SDS011;9119;50.932;5.342;2023-02-28T02:58:21;13.90;;;6.53;;
17987;SDS011;9119;50.932;5.342;2023-02-28T03:00:51;17.03;;;6.90;;
17987;SDS011;9119;50.932;5.342;2023-02-28T03:03:20;15.60;;;7.63;;
17987;SDS011;9119;50.932;5.342;2023-02-28T03:05:53;13.87;;;7.10;;
17987;SDS011;9119;50.932;5.342;2023-02-28T03:08:24;16.13;;;7.40;;
17987;SDS011;9119;50.932;5.342;2023-02-28T03:10:51;17.37;;;7.83;;
17987;SDS011;9119;50.932;5.342;2023-02-28T03:13:36;14.70;;;7.53;;
17987;SDS011;9119;50.932;5.342;2023-02-28T03:16:34;14.23;;;7.20;;
17987;SDS011;9119;50.932;5.342;2023-02-28T03:19:18;13.13;;;7.80;;
17987;SDS011;9119;50.932;5.342;2023-02-28T03:24:49;12.03;;;6.90;;
17987;SDS011;9119;50.932;5.342;2023-02-28T03:27:20;18.83;;;7.53;;
17987;SDS011;9119;50.932;5.342;2023-02-28T03:29:56;19.53;;;8.37;;
17987;SDS011;9119;50.932;5.342;2023-02-28T03:32:28;17.37;;;8.03;;
17987;SDS011;9119;50.932;5.342;2023-02-28T03:37:31;13.60;;;7.50;;
17987;SDS011;9119;50.932;5.342;2023-02-28T03:40:08;15.43;;;7.90;;
17987;SDS011;9119;50.932;5.342;2023-02-28T03:42:39;14.63;;;7.53;;
17987;SDS011;9119;50.932;5.342;2023-02-28T03:45:11;14.57;;;7.90;;
17987;SDS011;9119;50.932;5.342;2023-02-28T03:47:44;16.63;;;7.70;;
17987;SDS011;9119;50.932;5.342;2023-02-28T03:50:23;15.60;;;8.37;;
17987;SDS011;9119;50.932;5.342;2023-02-28T03:52:54;14.80;;;8.20;;
17987;SDS011;9119;50.932;5.342;2023-02-28T03:55:26;18.80;;;8.20;;
17987;SDS011;9119;50.932;5.342;2023-02-28T03:58:21;19.60;;;8.33;;
17987;SDS011;9119;50.932;5.342;2023-02-28T04:00:51;16.87;;;7.53;;
17987;SDS011;9119;50.932;5.342;2023-02-28T04:03:22;22.93;;;8.50;;
17987;SDS011;9119;50.932;5.342;2023-02-28T04:05:52;22.13;;;8.00;;
17987;SDS011;9119;50.932;5.342;2023-02-28T04:08:20;19.53;;;8.00;;
17987;SDS011;9119;50.932;5.342;2023-02-28T04:10:48;16.80;;;8.07;;
17987;SDS011;9119;50.932;5.342;2023-02-28T04:13:18;16.80;;;8.03;;
17987;SDS011;9119;50.932;5.342;2023-02-28T04:15:43;16.03;;;8.27;;
17987;SDS011;9119;50.932;5.342;2023-02-28T04:18:09;17.40;;;8.33;;
17987;SDS011;9119;50.932;5.342;2023-02-28T04:20:35;17.57;;;8.53;;
17987;SDS011;9119;50.932;5.342;2023-02-28T04:23:01;13.23;;;7.30;;
17987;SDS011;9119;50.932;5.342;2023-02-28T04:25:27;16.33;;;7.97;;
17987;SDS011;9119;50.932;5.342;2023-02-28T04:27:52;18.07;;;8.77;;
17987;SDS011;9119;50.932;5.342;2023-02-28T04:30:18;16.17;;;8.57;;
17987;SDS011;9119;50.932;5.342;2023-02-28T04:32:44;16.30;;;7.77;;
17987;SDS011;9119;50.932;5.342;2023-02-28T04:35:09;15.20;;;7.70;;
17987;SDS011;9119;50.932;5.342;2023-02-28T04:37:35;16.00;;;7.97;;
17987;SDS011;9119;50.932;5.342;2023-02-28T04:40:02;13.60;;;7.70;;
17987;SDS011;9119;50.932;5.342;2023-02-28T04:42:28;15.23;;;8.17;;
17987;SDS011;9119;50.932;5.342;2023-02-28T04:45:00;16.77;;;8.90;;
17987;SDS011;9119;50.932;5.342;2023-02-28T04:47:29;14.27;;;8.00;;
17987;SDS011;9119;50.932;5.342;2023-02-28T04:49:55;23.33;;;8.23;;
17987;SDS011;9119;50.932;5.342;2023-02-28T04:52:21;14.93;;;8.03;;
17987;SDS011;9119;50.932;5.342;2023-02-28T04:54:46;14.07;;;7.90;;
17987;SDS011;9119;50.932;5.342;2023-02-28T04:57:12;14.20;;;7.40;;
17987;SDS011;9119;50.932;5.342;2023-02-28T04:59:38;13.63;;;8.20;;
17987;SDS011;9119;50.932;5.342;2023-02-28T05:02:04;19.13;;;8.67;;
17987;SDS011;9119;50.932;5.342;2023-02-28T05:04:32;22.63;;;8.70;;
17987;SDS011;9119;50.932;5.342;2023-02-28T05:06:59;19.87;;;8.23;;
17987;SDS011;9119;50.932;5.342;2023-02-28T05:09:25;18.10;;;8.90;;
17987;SDS011;9119;50.932;5.342;2023-02-28T05:11:51;16.07;;;8.73;;
17987;SDS011;9119;50.932;5.342;2023-02-28T05:14:16;19.53;;;8.90;;
17987;SDS011;9119;50.932;5.342;2023-02-28T05:16:42;18.17;;;9.23;;
17987;SDS011;9119;50.932;5.342;2023-02-28T05:19:08;18.17;;;9.43;;
17987;SDS011;9119;50.932;5.342;2023-02-28T05:21:37;17.53;;;9.43;;
17987;SDS011;9119;50.932;5.342;2023-02-28T05:24:06;20.43;;;9.27;;
17987;SDS011;9119;50.932;5.342;2023-02-28T05:26:35;26.47;;;9.50;;
17987;SDS011;9119;50.932;5.342;2023-02-28T05:29:02;27.03;;;9.90;;
17987;SDS011;9119;50.932;5.342;2023-02-28T05:31:28;15.57;;;9.37;;
17987;SDS011;9119;50.932;5.342;2023-02-28T05:33:53;19.93;;;9.40;;
17987;SDS011;9119;50.932;5.342;2023-02-28T05:36:19;20.57;;;8.80;;
17987;SDS011;9119;50.932;5.342;2023-02-28T05:38:46;18.80;;;8.77;;
17987;SDS011;9119;50.932;5.342;2023-02-28T05:41:13;21.27;;;9.53;;
17987;SDS011;9119;50.932;5.342;2023-02-28T05:43:39;24.50;;;8.77;;
17987;SDS011;9119;50.932;5.342;2023-02-28T05:46:05;21.03;;;9.63;;
17987;SDS011;9119;50.932;5.342;2023-02-28T05:48:33;21.57;;;10.23;;
17987;SDS011;9119;50.932;5.342;2023-02-28T05:51:00;20.60;;;9.60;;
17987;SDS011;9119;50.932;5.342;2023-02-28T05:53:26;20.60;;;8.90;;
17987;SDS011;9119;50.932;5.342;2023-02-28T05:55:52;18.53;;;9.27;;
17987;SDS011;9119;50.932;5.342;2023-02-28T05:58:18;17.17;;;10.23;;
17987;SDS011;9119;50.932;5.342;2023-02-28T06:00:43;18.47;;;9.40;;
17987;SDS011;9119;50.932;5.342;2023-02-28T06:03:09;19.93;;;9.93;;
17987;SDS011;9119;50.932;5.342;2023-02-28T06:05:35;19.87;;;9.97;;
17987;SDS011;9119;50.932;5.342;2023-02-28T06:08:00;21.17;;;9.50;;
17987;SDS011;9119;50.932;5.342;2023-02-28T06:10:26;17.53;;;8.90;;
17987;SDS011;9119;50.932;5.342;2023-02-28T06:12:52;22.10;;;9.63;;
17987;SDS011;9119;50.932;5.342;2023-02-28T06:15:17;19.93;;;9.60;;
17987;SDS011;9119;50.932;5.342;2023-02-28T06:17:43;20.27;;;9.37;;
17987;SDS011;9119;50.932;5.342;2023-02-28T06:20:10;17.80;;;9.43;;
17987;SDS011;9119;50.932;5.342;2023-02-28T06:22:37;24.57;;;9.70;;
17987;SDS011;9119;50.932;5.342;2023-02-28T06:25:04;22.90;;;10.07;;
17987;SDS011;9119;50.932;5.342;2023-02-28T06:27:31;18.70;;;9.67;;
17987;SDS011;9119;50.932;5.342;2023-02-28T06:29:57;19.73;;;9.13;;
17987;SDS011;9119;50.932;5.342;2023-02-28T06:32:23;17.57;;;8.97;;
17987;SDS011;9119;50.932;5.342;2023-02-28T06:34:50;21.37;;;9.23;;
17987;SDS011;9119;50.932;5.342;2023-02-28T06:37:16;23.43;;;9.27;;
17987;SDS011;9119;50.932;5.342;2023-02-28T06:39:43;21.57;;;9.10;;
17987;SDS011;9119;50.932;5.342;2023-02-28T06:42:09;25.50;;;10.50;;
17987;SDS011;9119;50.932;5.342;2023-02-28T06:44:35;19.20;;;9.30;;
17987;SDS011;9119;50.932;5.342;2023-02-28T06:47:01;19.20;;;8.60;;
17987;SDS011;9119;50.932;5.342;2023-02-28T06:49:28;17.90;;;9.00;;
17987;SDS011;9119;50.932;5.342;2023-02-28T06:51:55;20.90;;;8.97;;
17987;SDS011;9119;50.932;5.342;2023-02-28T06:54:21;18.47;;;8.97;;
17987;SDS011;9119;50.932;5.342;2023-02-28T06:56:46;26.77;;;9.30;;
17987;SDS011;9119;50.932;5.342;2023-02-28T06:59:12;22.43;;;9.00;;
17987;SDS011;9119;50.932;5.342;2023-02-28T07:01:38;16.17;;;9.27;;
17987;SDS011;9119;50.932;5.342;2023-02-28T07:04:05;18.20;;;9.67;;
17987;SDS011;9119;50.932;5.342;2023-02-28T07:06:31;17.10;;;8.83;;
17987;SDS011;9119;50.932;5.342;2023-02-28T07:08:58;21.30;;;9.37;;
17987;SDS011;9119;50.932;5.342;2023-02-28T07:11:25;25.93;;;10.87;;
17987;SDS011;9119;50.932;5.342;2023-02-28T07:13:55;24.67;;;9.00;;
17987;SDS011;9119;50.932;5.342;2023-02-28T07:16:22;19.97;;;9.60;;
17987;SDS011;9119;50.932;5.342;2023-02-28T07:18:48;19.57;;;8.70;;
17987;SDS011;9119;50.932;5.342;2023-02-28T07:21:14;19.10;;;8.67;;
17987;SDS011;9119;50.932;5.342;2023-02-28T07:23:40;18.90;;;8.40;;
17987;SDS011;9119;50.932;5.342;2023-02-28T07:26:07;20.77;;;9.07;;
17987;SDS011;9119;50.932;5.342;2023-02-28T07:28:37;17.77;;;8.33;;
17987;SDS011;9119;50.932;5.342;2023-02-28T07:31:06;13.43;;;7.57;;
17987;SDS011;9119;50.932;5.342;2023-02-28T07:33:32;14.13;;;7.80;;
17987;SDS011;9119;50.932;5.342;2023-02-28T07:36:06;13.37;;;7.97;;
17987;SDS011;9119;50.932;5.342;2023-02-28T07:38:35;17.00;;;8.37;;
17987;SDS011;9119;50.932;5.342;2023-02-28T07:41:01;14.20;;;7.27;;
17987;SDS011;9119;50.932;5.342;2023-02-28T07:43:30;18.63;;;8.10;;
17987;SDS011;9119;50.932;5.342;2023-02-28T07:46:07;19.13;;;8.13;;
17987;SDS011;9119;50.932;5.342;2023-02-28T07:48:35;18.73;;;7.80;;
17987;SDS011;9119;50.932;5.342;2023-02-28T07:51:01;18.87;;;7.67;;
17987;SDS011;9119;50.932;5.342;2023-02-28T07:53:27;18.57;;;6.93;;
17987;SDS011;9119;50.932;5.342;2023-02-28T07:55:54;14.67;;;7.00;;
17987;SDS011;9119;50.932;5.342;2023-02-28T07:58:21;12.20;;;6.67;;
17987;SDS011;9119;50.932;5.342;2023-02-28T08:00:47;13.13;;;6.67;;
17987;SDS011;9119;50.932;5.342;2023-02-28T08:03:12;14.30;;;7.27;;
17987;SDS011;9119;50.932;5.342;2023-02-28T08:05:41;13.07;;;6.97;;
17987;SDS011;9119;50.932;5.342;2023-02-28T08:08:07;17.47;;;6.70;;
17987;SDS011;9119;50.932;5.342;2023-02-28T08:10:33;15.13;;;6.70;;
17987;SDS011;9119;50.932;5.342;2023-02-28T08:12:59;17.47;;;6.37;;
17987;SDS011;9119;50.932;5.342;2023-02-28T08:15:25;13.23;;;5.87;;
17987;SDS011;9119;50.932;5.342;2023-02-28T08:17:51;11.13;;;5.83;;
17987;SDS011;9119;50.932;5.342;2023-02-28T08:20:16;9.80;;;5.47;;
17987;SDS011;9119;50.932;5.342;2023-02-28T08:22:42;12.97;;;5.93;;
17987;SDS011;9119;50.932;5.342;2023-02-28T08:25:08;12.80;;;5.87;;
17987;SDS011;9119;50.932;5.342;2023-02-28T08:27:34;11.03;;;5.30;;
17987;SDS011;9119;50.932;5.342;2023-02-28T08:30:00;12.30;;;5.17;;
17987;SDS011;9119;50.932;5.342;2023-02-28T08:32:26;9.27;;;5.07;;
17987;SDS011;9119;50.932;5.342;2023-02-28T08:34:52;15.83;;;5.17;;
17987;SDS011;9119;50.932;5.342;2023-02-28T08:37:17;11.43;;;5.30;;
17987;SDS011;9119;50.932;5.342;2023-02-28T08:39:43;12.63;;;4.90;;
17987;SDS011;9119;50.932;5.342;2023-02-28T08:42:09;11.37;;;5.30;;
17987;SDS011;9119;50.932;5.342;2023-02-28T08:44:35;14.40;;;5.17;;
17987;SDS011;9119;50.932;5.342;2023-02-28T08:47:00;11.30;;;5.03;;
17987;SDS011;9119;50.932;5.342;2023-02-28T08:49:27;9.93;;;4.60;;
17987;SDS011;9119;50.932;5.342;2023-02-28T08:51:56;10.47;;;4.20;;
17987;SDS011;9119;50.932;5.342;2023-02-28T08:54:22;13.27;;;4.80;;
17987;SDS011;9119;50.932;5.342;2023-02-28T08:56:48;12.23;;;5.47;;
17987;SDS011;9119;50.932;5.342;2023-02-28T08:59:14;7.43;;;4.30;;
17987;SDS011;9119;50.932;5.342;2023-02-28T09:01:40;15.33;;;5.20;;
17987;SDS011;9119;50.932;5.342;2023-02-28T09:04:07;11.60;;;5.07;;
17987;SDS011;9119;50.932;5.342;2023-02-28T09:06:34;9.30;;;3.83;;
17987;SDS011;9119;50.932;5.342;2023-02-28T09:09:04;12.27;;;3.90;;
17987;SDS011;9119;50.932;5.342;2023-02-28T09:11:32;8.17;;;3.83;;
17987;SDS011;9119;50.932;5.342;2023-02-28T09:14:00;9.23;;;4.30;;
17987;SDS011;9119;50.932;5.342;2023-02-28T09:16:28;10.13;;;3.83;;
17987;SDS011;9119;50.932;5.342;2023-02-28T09:18:55;6.33;;;3.43;;
17987;SDS011;9119;50.932;5.342;2023-02-28T09:21:21;6.97;;;3.40;;
17987;SDS011;9119;50.932;5.342;2023-02-28T09:23:47;6.17;;;3.03;;
17987;SDS011;9119;50.932;5.342;2023-02-28T09:26:18;7.40;;;3.70;;
17987;SDS011;9119;50.932;5.342;2023-02-28T09:28:48;9.40;;;2.90;;
17987;SDS011;9119;50.932;5.342;2023-02-28T09:31:19;6.93;;;2.90;;
17987;SDS011;9119;50.932;5.342;2023-02-28T09:33:49;5.77;;;2.67;;
17987;SDS011;9119;50.932;5.342;2023-02-28T09:36:16;7.90;;;3.17;;
17987;SDS011;9119;50.932;5.342;2023-02-28T09:38:43;4.03;;;2.50;;
17987;SDS011;9119;50.932;5.342;2023-02-28T09:41:15;5.50;;;2.70;;
17987;SDS011;9119;50.932;5.342;2023-02-28T09:43:46;5.03;;;2.57;;
17987;SDS011;9119;50.932;5.342;2023-02-28T09:49:22;5.27;;;2.60;;
17987;SDS011;9119;50.932;5.342;2023-02-28T09:51:55;5.23;;;2.83;;
17987;SDS011;9119;50.932;5.342;2023-02-28T09:54:29;4.37;;;2.90;;
17987;SDS011;9119;50.932;5.342;2023-02-28T10:00:36;5.60;;;2.80;;
17987;SDS011;9119;50.932;5.342;2023-02-28T10:05:31;6.30;;;3.00;;
17987;SDS011;9119;50.932;5.342;2023-02-28T10:08:05;5.10;;;3.00;;
17987;SDS011;9119;50.932;5.342;2023-02-28T10:13:16;6.30;;;2.63;;
17987;SDS011;9119;50.932;5.342;2023-02-28T10:15:50;8.40;;;2.77;;
17987;SDS011;9119;50.932;5.342;2023-02-28T10:18:45;4.57;;;2.60;;
17987;SDS011;9119;50.932;5.342;2023-02-28T10:21:17;3.60;;;2.60;;
17987;SDS011;9119;50.932;5.342;2023-02-28T10:23:56;7.60;;;4.00;;
17987;SDS011;9119;50.932;5.342;2023-02-28T10:26:31;4.40;;;2.67;;
17987;SDS011;9119;50.932;5.342;2023-02-28T10:28:57;5.53;;;3.03;;
17987;SDS011;9119;50.932;5.342;2023-02-28T10:31:23;8.90;;;3.57;;
17987;SDS011;9119;50.932;5.342;2023-02-28T10:33:49;8.10;;;2.77;;
17987;SDS011;9119;50.932;5.342;2023-02-28T10:36:16;9.97;;;2.67;;
17987;SDS011;9119;50.932;5.342;2023-02-28T10:38:44;5.57;;;2.67;;
17987;SDS011;9119;50.932;5.342;2023-02-28T10:41:26;4.73;;;2.60;;
17987;SDS011;9119;50.932;5.342;2023-02-28T10:46:46;3.40;;;2.20;;
17987;SDS011;9119;50.932;5.342;2023-02-28T10:49:23;5.77;;;2.53;;
17987;SDS011;9119;50.932;5.342;2023-02-28T10:51:55;5.90;;;2.83;;
17987;SDS011;9119;50.932;5.342;2023-02-28T10:54:32;4.17;;;2.50;;
17987;SDS011;9119;50.932;5.342;2023-02-28T10:59:52;4.07;;;2.10;;
17987;SDS011;9119;50.932;5.342;2023-02-28T11:02:39;4.27;;;2.60;;
17987;SDS011;9119;50.932;5.342;2023-02-28T11:07:54;4.47;;;2.50;;
17987;SDS011;9119;50.932;5.342;2023-02-28T11:10:23;5.60;;;2.67;;
17987;SDS011;9119;50.932;5.342;2023-02-28T11:12:56;4.10;;;2.40;;
17987;SDS011;9119;50.932;5.342;2023-02-28T11:15:24;7.03;;;2.77;;
17987;SDS011;9119;50.932;5.342;2023-02-28T11:20:23;4.40;;;2.80;;
17987;SDS011;9119;50.932;5.342;2023-02-28T11:22:51;4.77;;;2.27;;
17987;SDS011;9119;50.932;5.342;2023-02-28T11:25:23;5.97;;;2.50;;
17987;SDS011;9119;50.932;5.342;2023-02-28T11:27:54;7.80;;;2.30;;
17987;SDS011;9119;50.932;5.342;2023-02-28T11:30:37;3.23;;;2.40;;
17987;SDS011;9119;50.932;5.342;2023-02-28T11:35:59;6.00;;;2.43;;
17987;SDS011;9119;50.932;5.342;2023-02-28T11:38:28;5.90;;;2.33;;
17987;SDS011;9119;50.932;5.342;2023-02-28T11:43:46;4.30;;;2.23;;
17987;SDS011;9119;50.932;5.342;2023-02-28T11:49:23;4.50;;;2.20;;
17987;SDS011;9119;50.932;5.342;2023-02-28T12:14:00;3.20;;;2.30;;
17987;SDS011;9119;50.932;5.342;2023-02-28T12:27:02;6.53;;;2.90;;
17987;SDS011;9119;50.932;5.342;2023-02-28T12:29:44;4.60;;;2.43;;
17987;SDS011;9119;50.932;5.342;2023-02-28T12:32:23;6.93;;;2.37;;
17987;SDS011;9119;50.932;5.342;2023-02-28T12:40:06;7.50;;;2.90;;
17987;SDS011;9119;50.932;5.342;2023-02-28T12:42:37;4.23;;;2.80;;
17987;SDS011;9119;50.932;5.342;2023-02-28T12:45:12;6.20;;;2.77;;
17987;SDS011;9119;50.932;5.342;2023-02-28T12:47:39;5.10;;;2.70;;
17987;SDS011;9119;50.932;5.342;2023-02-28T12:50:08;6.53;;;3.00;;
17987;SDS011;9119;50.932;5.342;2023-02-28T13:07:29;8.13;;;3.20;;
17987;SDS011;9119;50.932;5.342;2023-02-28T13:10:19;4.00;;;2.70;;
17987;SDS011;9119;50.932;5.342;2023-02-28T13:12:52;10.27;;;3.30;;
17987;SDS011;9119;50.932;5.342;2023-02-28T13:15:26;6.63;;;3.30;;
17987;SDS011;9119;50.932;5.342;2023-02-28T13:17:57;5.10;;;3.20;;
17987;SDS011;9119;50.932;5.342;2023-02-28T13:20:29;4.47;;;3.00;;
17987;SDS011;9119;50.932;5.342;2023-02-28T13:23:02;5.33;;;3.27;;
17987;SDS011;9119;50.932;5.342;2023-02-28T13:27:59;4.07;;;2.90;;
17987;SDS011;9119;50.932;5.342;2023-02-28T13:38:44;6.43;;;3.80;;
17987;SDS011;9119;50.932;5.342;2023-02-28T13:44:06;5.03;;;2.80;;
17987;SDS011;9119;50.932;5.342;2023-02-28T13:46:36;4.87;;;3.30;;
17987;SDS011;9119;50.932;5.342;2023-02-28T14:02:48;5.10;;;2.73;;
17987;SDS011;9119;50.932;5.342;2023-02-28T14:05:26;5.97;;;3.00;;
17987;SDS011;9119;50.932;5.342;2023-02-28T14:07:56;7.80;;;3.53;;
17987;SDS011;9119;50.932;5.342;2023-02-28T14:10:30;7.73;;;3.63;;
17987;SDS011;9119;50.932;5.342;2023-02-28T14:12:59;6.57;;;3.17;;
17987;SDS011;9119;50.932;5.342;2023-02-28T14:17:58;10.33;;;4.07;;
17987;SDS011;9119;50.932;5.342;2023-02-28T14:20:29;5.57;;;3.00;;
17987;SDS011;9119;50.932;5.342;2023-02-28T14:23:06;4.83;;;3.27;;
17987;SDS011;9119;50.932;5.342;2023-02-28T14:37:03;4.70;;;2.97;;
17987;SDS011;9119;50.932;5.342;2023-02-28T14:39:29;5.77;;;3.50;;
17987;SDS011;9119;50.932;5.342;2023-02-28T14:41:56;6.63;;;3.40;;
17987;SDS011;9119;50.932;5.342;2023-02-28T14:44:28;9.80;;;3.23;;
17987;SDS011;9119;50.932;5.342;2023-02-28T14:46:54;7.90;;;3.67;;
17987;SDS011;9119;50.932;5.342;2023-02-28T14:52:02;5.30;;;3.00;;
17987;SDS011;9119;50.932;5.342;2023-02-28T14:54:35;6.63;;;3.63;;
17987;SDS011;9119;50.932;5.342;2023-02-28T14:57:02;5.50;;;3.40;;
17987;SDS011;9119;50.932;5.342;2023-02-28T14:59:35;8.83;;;3.40;;
17987;SDS011;9119;50.932;5.342;2023-02-28T15:02:17;5.07;;;3.30;;
17987;SDS011;9119;50.932;5.342;2023-02-28T15:04:57;4.10;;;3.00;;
17987;SDS011;9119;50.932;5.342;2023-02-28T15:07:25;5.40;;;3.20;;
17987;SDS011;9119;50.932;5.342;2023-02-28T15:10:07;5.43;;;2.90;;
17987;SDS011;9119;50.932;5.342;2023-02-28T15:12:35;4.73;;;3.20;;
17987;SDS011;9119;50.932;5.342;2023-02-28T15:15:04;6.83;;;3.07;;
17987;SDS011;9119;50.932;5.342;2023-02-28T15:17:32;6.50;;;3.50;;
17987;SDS011;9119;50.932;5.342;2023-02-28T15:19:59;5.67;;;3.10;;
17987;SDS011;9119;50.932;5.342;2023-02-28T15:22:29;4.47;;;3.27;;
17987;SDS011;9119;50.932;5.342;2023-02-28T15:25:00;5.27;;;2.90;;
17987;SDS011;9119;50.932;5.342;2023-02-28T15:27:31;5.93;;;3.20;;
17987;SDS011;9119;50.932;5.342;2023-02-28T15:29:59;7.87;;;3.63;;
17987;SDS011;9119;50.932;5.342;2023-02-28T15:32:31;7.43;;;2.90;;
17987;SDS011;9119;50.932;5.342;2023-02-28T15:34:59;5.97;;;3.33;;
17987;SDS011;9119;50.932;5.342;2023-02-28T15:38:04;6.83;;;3.47;;
17987;SDS011;9119;50.932;5.342;2023-02-28T15:40:54;3.50;;;3.07;;
17987;SDS011;9119;50.932;5.342;2023-02-28T15:43:27;6.67;;;3.30;;
17987;SDS011;9119;50.932;5.342;2023-02-28T15:46:07;6.67;;;3.20;;
17987;SDS011;9119;50.932;5.342;2023-02-28T15:48:53;5.97;;;3.47;;
17987;SDS011;9119;50.932;5.342;2023-02-28T15:54:01;8.13;;;3.90;;
17987;SDS011;9119;50.932;5.342;2023-02-28T15:56:28;15.80;;;3.90;;
17987;SDS011;9119;50.932;5.342;2023-02-28T15:58:57;7.10;;;3.60;;
17987;SDS011;9119;50.932;5.342;2023-02-28T16:01:38;7.73;;;3.47;;
17987;SDS011;9119;50.932;5.342;2023-02-28T16:04:15;5.63;;;3.20;;
17987;SDS011;9119;50.932;5.342;2023-02-28T16:06:53;12.00;;;3.80;;
17987;SDS011;9119;50.932;5.342;2023-02-28T16:09:26;4.90;;;3.40;;
17987;SDS011;9119;50.932;5.342;2023-02-28T16:11:55;5.00;;;3.30;;
17987;SDS011;9119;50.932;5.342;2023-02-28T16:14:25;7.57;;;3.60;;
17987;SDS011;9119;50.932;5.342;2023-02-28T16:16:56;5.73;;;3.67;;
17987;SDS011;9119;50.932;5.342;2023-02-28T16:19:27;9.37;;;3.37;;
17987;SDS011;9119;50.932;5.342;2023-02-28T16:21:53;7.00;;;3.90;;
17987;SDS011;9119;50.932;5.342;2023-02-28T16:24:18;6.90;;;3.40;;
17987;SDS011;9119;50.932;5.342;2023-02-28T16:26:48;10.70;;;3.63;;
17987;SDS011;9119;50.932;5.342;2023-02-28T16:29:27;5.90;;;3.20;;
17987;SDS011;9119;50.932;5.342;2023-02-28T16:32:00;8.07;;;4.17;;
17987;SDS011;9119;50.932;5.342;2023-02-28T16:34:26;5.57;;;3.47;;
17987;SDS011;9119;50.932;5.342;2023-02-28T16:36:52;4.50;;;3.20;;
17987;SDS011;9119;50.932;5.342;2023-02-28T16:39:18;4.70;;;3.60;;
17987;SDS011;9119;50.932;5.342;2023-02-28T16:41:47;5.57;;;3.40;;
17987;SDS011;9119;50.932;5.342;2023-02-28T16:44:21;8.17;;;4.03;;
17987;SDS011;9119;50.932;5.342;2023-02-28T16:46:57;5.67;;;3.30;;
17987;SDS011;9119;50.932;5.342;2023-02-28T16:49:25;8.27;;;3.90;;
17987;SDS011;9119;50.932;5.342;2023-02-28T16:51:50;9.57;;;3.60;;
17987;SDS011;9119;50.932;5.342;2023-02-28T16:54:16;7.93;;;3.50;;
17987;SDS011;9119;50.932;5.342;2023-02-28T16:56:43;7.57;;;3.47;;
17987;SDS011;9119;50.932;5.342;2023-02-28T16:59:10;5.10;;;3.20;;
17987;SDS011;9119;50.932;5.342;2023-02-28T17:01:36;11.60;;;3.43;;
17987;SDS011;9119;50.932;5.342;2023-02-28T17:04:02;7.47;;;3.70;;
17987;SDS011;9119;50.932;5.342;2023-02-28T17:06:28;7.00;;;3.80;;
17987;SDS011;9119;50.932;5.342;2023-02-28T17:08:55;5.67;;;3.30;;
17987;SDS011;9119;50.932;5.342;2023-02-28T17:11:22;7.13;;;3.43;;
17987;SDS011;9119;50.932;5.342;2023-02-28T17:13:49;6.57;;;4.00;;
17987;SDS011;9119;50.932;5.342;2023-02-28T17:16:17;7.70;;;4.03;;
17987;SDS011;9119;50.932;5.342;2023-02-28T17:18:47;6.57;;;3.80;;
17987;SDS011;9119;50.932;5.342;2023-02-28T17:21:16;5.37;;;3.57;;
17987;SDS011;9119;50.932;5.342;2023-02-28T17:23:42;8.00;;;3.80;;
17987;SDS011;9119;50.932;5.342;2023-02-28T17:26:15;14.63;;;4.37;;
17987;SDS011;9119;50.932;5.342;2023-02-28T17:28:44;8.43;;;4.27;;
17987;SDS011;9119;50.932;5.342;2023-02-28T17:31:11;8.23;;;3.57;;
17987;SDS011;9119;50.932;5.342;2023-02-28T17:33:37;8.27;;;3.80;;
17987;SDS011;9119;50.932;5.342;2023-02-28T17:36:02;6.10;;;3.47;;
17987;SDS011;9119;50.932;5.342;2023-02-28T17:38:28;6.07;;;3.27;;
17987;SDS011;9119;50.932;5.342;2023-02-28T17:40:54;8.63;;;3.87;;
17987;SDS011;9119;50.932;5.342;2023-02-28T17:43:25;5.77;;;3.70;;